Time;durP1;ratioP1;P1;durP2;ratioP2;P2;SDS_P1;SDS_P2;PMS_P1;PMS_P2;Temp;Humidity;BMP_temperature;BMP_pressure;BME280_temperature;BME280_humidity;BME280_pressure;Samples;Min_cycle;Max_cycle;Signal;HPM_P1;HPM_P2
2023/07/18 00:03:54;;;;;;;1.92;0.82;;;;;;;14.81;100.00;98917.31;15270416;19;20077;-60
2023/07/18 00:09:19;;;;;;;1.58;1.00;;;;;;;14.76;100.00;98915.16;15274954;19;20077;-61
2023/07/18 00:14:48;;;;;;;2.35;0.85;;;;;;;14.71;100.00;98915.69;15266202;19;20020;-55
2023/07/18 00:20:17;;;;;;;1.23;0.90;;;;;;;14.62;100.00;98908.56;15279863;19;20513;-60
2023/07/18 00:25:42;;;;;;;2.63;0.90;;;;;;;14.56;100.00;98912.84;15286186;19;20016;-56
2023/07/18 00:31:10;;;;;;;2.85;1.02;;;;;;;14.46;100.00;98913.03;15289325;19;20035;-57
2023/07/18 00:36:37;;;;;;;1.98;1.00;;;;;;;14.37;100.00;98916.78;15288705;19;20862;-57
2023/07/18 00:42:02;;;;;;;1.00;0.80;;;;;;;14.35;100.00;98910.69;15284747;19;20019;-77
2023/07/18 00:47:29;;;;;;;2.13;1.00;;;;;;;14.32;100.00;98902.88;15277709;19;20018;-77
2023/07/18 00:52:57;;;;;;;1.92;0.90;;;;;;;14.28;100.00;98907.00;15286810;19;20006;-77
2023/07/18 00:58:23;;;;;;;0.93;0.80;;;;;;;14.24;100.00;98914.59;15287504;19;20014;-77
2023/07/18 01:03:50;;;;;;;3.15;1.00;;;;;;;14.18;100.00;98915.28;15285372;19;20584;-77
2023/07/18 01:09:14;;;;;;;1.40;0.90;;;;;;;14.11;100.00;98915.13;15287716;19;20015;-77
2023/07/18 01:14:42;;;;;;;1.73;0.90;;;;;;;14.05;100.00;98910.41;15280704;19;20018;-77
2023/07/18 01:20:15;;;;;;;1.35;0.90;;;;;;;13.97;100.00;98916.69;15268865;19;20018;-60
2023/07/18 01:25:44;;;;;;;2.90;1.00;;;;;;;13.86;100.00;98914.34;15276350;19;20014;-60
2023/07/18 01:31:09;;;;;;;1.42;1.00;;;;;;;13.73;100.00;98905.88;15277313;19;20914;-60
2023/07/18 01:36:34;;;;;;;1.55;0.93;;;;;;;13.63;100.00;98923.16;15275636;19;20014;-60
2023/07/18 01:42:01;;;;;;;1.10;1.00;;;;;;;13.62;100.00;98915.16;15279140;19;20060;-59
2023/07/18 01:47:26;;;;;;;1.10;0.82;;;;;;;13.56;100.00;98911.28;15276257;19;20023;-58
2023/07/18 01:52:51;;;;;;;1.40;0.90;;;;;;;13.50;100.00;98910.09;15276735;19;20031;-56
2023/07/18 01:58:18;;;;;;;1.20;0.98;;;;;;;13.44;100.00;98899.94;15280354;19;20014;-57
2023/07/18 02:03:43;;;;;;;1.17;0.98;;;;;;;13.35;100.00;98898.19;15275739;19;20085;-60
2023/07/18 02:09:09;;;;;;;1.58;1.00;;;;;;;13.32;100.00;98890.44;15278381;19;20077;-58
2023/07/18 02:14:39;;;;;;;1.83;0.90;;;;;;;13.28;100.00;98891.78;15274949;19;20029;-59
2023/07/18 02:20:12;;;;;;;2.03;1.10;;;;;;;13.25;100.00;98898.38;15266636;19;20054;-59
2023/07/18 02:25:36;;;;;;;2.03;1.20;;;;;;;13.22;100.00;98910.38;15274723;19;20015;-59
2023/07/18 02:31:04;;;;;;;2.45;1.08;;;;;;;13.18;100.00;98906.31;15277140;19;20018;-56
2023/07/18 02:36:30;;;;;;;3.78;1.20;;;;;;;13.10;100.00;98911.72;15273529;19;20047;-57
2023/07/18 02:41:55;;;;;;;1.55;1.10;;;;;;;13.05;100.00;98911.34;15274377;19;20316;-57
2023/07/18 02:47:22;;;;;;;1.95;0.90;;;;;;;13.01;100.00;98907.25;15276533;19;20007;-57
2023/07/18 02:52:48;;;;;;;1.60;1.20;;;;;;;12.97;100.00;98911.34;15271472;19;20100;-55
2023/07/18 02:58:13;;;;;;;2.15;1.20;;;;;;;12.93;100.00;98913.53;15274312;19;20015;-59
2023/07/18 03:03:41;;;;;;;1.75;1.17;;;;;;;12.84;100.00;98917.19;15272349;19;20390;-59
2023/07/18 03:09:05;;;;;;;2.20;1.20;;;;;;;12.76;100.00;98915.28;15274088;19;20047;-58
2023/07/18 03:14:30;;;;;;;1.25;1.13;;;;;;;12.70;100.00;98921.38;15264433;19;20021;-60
2023/07/18 03:20:05;;;;;;;4.65;1.20;;;;;;;12.63;100.00;98927.44;15264055;19;20085;-59
2023/07/18 03:25:30;;;;;;;5.18;1.23;;;;;;;12.59;100.00;98922.50;15266176;19;20512;-60
2023/07/18 03:30:56;;;;;;;4.93;1.30;;;;;;;12.55;100.00;98930.09;15275644;19;20110;-58
2023/07/18 03:36:23;;;;;;;1.40;1.25;;;;;;;12.52;100.00;98921.44;15273937;19;20054;-59
2023/07/18 03:41:48;;;;;;;1.50;1.20;;;;;;;12.47;100.00;98916.53;15275338;19;20090;-58
2023/07/18 03:47:13;;;;;;;1.95;1.30;;;;;;;12.45;100.00;98924.81;15278998;19;20007;-59
2023/07/18 03:52:41;;;;;;;1.95;1.20;;;;;;;12.40;100.00;98927.13;15285447;19;20349;-60
2023/07/18 03:58:06;;;;;;;1.90;1.40;;;;;;;12.37;100.00;98926.63;15286045;19;20074;-60
2023/07/18 04:03:31;;;;;;;1.58;1.25;;;;;;;12.32;100.00;98932.50;15287404;19;20018;-60
2023/07/18 04:08:58;;;;;;;1.52;1.20;;;;;;;12.30;100.00;98938.06;15288385;19;20017;-59
2023/07/18 04:14:23;;;;;;;2.97;1.35;;;;;;;12.25;100.00;98944.94;15284777;19;20017;-61
2023/07/18 04:19:55;;;;;;;3.45;1.38;;;;;;;12.21;100.00;98947.13;15285358;19;20491;-60
2023/07/18 04:25:22;;;;;;;2.20;1.37;;;;;;;12.19;100.00;98949.13;15286228;19;20025;-62
2023/07/18 04:30:47;;;;;;;2.28;1.45;;;;;;;12.20;100.00;98947.28;15285418;19;20024;-61
2023/07/18 04:36:12;;;;;;;3.20;1.60;;;;;;;12.24;100.00;98948.66;15284182;19;20046;-60
2023/07/18 04:41:39;;;;;;;1.80;1.42;;;;;;;12.28;100.00;98948.19;15286220;19;20010;-61
2023/07/18 04:47:12;;;;;;;2.85;1.60;;;;;;;12.37;100.00;98937.44;15284016;19;20086;-59
2023/07/18 04:52:37;;;;;;;2.08;1.63;;;;;;;12.41;100.00;98939.66;15283573;19;20089;-60
2023/07/18 04:58:04;;;;;;;3.05;1.65;;;;;;;12.52;100.00;98949.34;15283885;19;20014;-58
2023/07/18 05:03:29;;;;;;;1.80;1.50;;;;;;;12.60;100.00;98954.78;15277903;19;20341;-59
2023/07/18 05:09:08;;;;;;;3.40;1.33;;;;;;;12.71;100.00;98959.03;15281101;19;20479;-60
2023/07/18 05:14:35;;;;;;;2.20;1.50;;;;;;;12.85;100.00;98952.19;15279256;19;20045;-61
2023/07/18 05:20:00;;;;;;;2.90;1.45;;;;;;;12.94;100.00;98951.22;15280436;19;20078;-60
2023/07/18 05:25:25;;;;;;;2.30;1.30;;;;;;;13.08;100.00;98938.91;15279291;19;20018;-59
2023/07/18 05:30:52;;;;;;;2.95;1.42;;;;;;;13.20;100.00;98949.41;15282309;19;20014;-60
2023/07/18 05:36:18;;;;;;;3.05;1.30;;;;;;;13.30;100.00;98943.88;15274728;19;20015;-60
2023/07/18 05:41:43;;;;;;;1.88;1.40;;;;;;;13.40;100.00;98944.59;15280577;19;20066;-60
2023/07/18 05:47:10;;;;;;;2.47;1.40;;;;;;;13.56;100.00;98947.34;15276289;19;20024;-60
2023/07/18 05:52:35;;;;;;;2.13;1.50;;;;;;;13.68;100.00;98941.59;15279643;19;20355;-59
2023/07/18 05:58:00;;;;;;;1.20;1.10;;;;;;;13.84;100.00;98940.75;15277875;19;20508;-59
2023/07/18 06:03:28;;;;;;;2.30;1.20;;;;;;;13.99;100.00;98941.72;15277716;19;20018;-60
2023/07/18 06:08:54;;;;;;;1.38;1.02;;;;;;;14.18;100.00;98935.09;15276811;19;20010;-58
2023/07/18 06:14:19;;;;;;;1.33;1.00;;;;;;;14.38;100.00;98933.88;15277862;19;20014;-59
2023/07/18 06:19:54;;;;;;;1.67;1.30;;;;;;;14.60;100.00;98933.13;15275797;19;20037;-60
2023/07/18 06:25:19;;;;;;;2.50;1.05;;;;;;;14.75;100.00;98927.88;15275217;19;20614;-58
2023/07/18 06:30:43;;;;;;;1.15;1.00;;;;;;;14.91;100.00;98923.38;15279326;19;20628;-58
2023/07/18 06:36:11;;;;;;;2.33;0.93;;;;;;;15.09;100.00;98904.13;15273250;19;20358;-59
2023/07/18 06:41:36;;;;;;;1.65;1.10;;;;;;;15.35;100.00;98913.81;15273580;19;20495;-60
2023/07/18 06:47:00;;;;;;;0.85;0.77;;;;;;;15.60;100.00;98911.75;15262680;19;20025;-62
2023/07/18 06:52:28;;;;;;;0.93;0.80;;;;;;;15.77;100.00;98908.91;15278888;19;20030;-61
2023/07/18 06:57:53;;;;;;;1.95;1.20;;;;;;;15.98;100.00;98906.34;15277652;19;20021;-63
2023/07/18 07:03:18;;;;;;;4.05;1.40;;;;;;;16.19;100.00;98907.50;15275904;19;20078;-58
2023/07/18 07:08:50;;;;;;;2.67;1.25;;;;;;;16.36;100.00;98901.91;15274381;19;20350;-59
2023/07/18 07:14:14;;;;;;;1.13;0.98;;;;;;;16.52;100.00;98896.28;15277948;19;20014;-60
2023/07/18 07:19:39;;;;;;;1.85;1.10;;;;;;;16.63;100.00;98893.09;15274325;19;20018;-60
2023/07/18 07:25:07;;;;;;;1.77;1.08;;;;;;;16.81;100.00;98885.56;15275677;19;20084;-61
2023/07/18 07:30:31;;;;;;;2.65;1.05;;;;;;;17.01;100.00;98883.09;15275583;19;20073;-61
2023/07/18 07:35:56;;;;;;;5.43;1.30;;;;;;;17.21;100.00;98867.84;15273937;19;20087;-60
2023/07/18 07:41:24;;;;;;;1.48;1.00;;;;;;;17.43;100.00;98873.28;15275793;19;20038;-60
2023/07/18 07:46:56;;;;;;;2.85;0.90;;;;;;;17.67;100.00;98863.03;15272002;19;20025;-61
2023/07/18 07:52:21;;;;;;;3.15;1.25;;;;;;;17.79;100.00;98861.44;15275479;19;20020;-61
2023/07/18 07:57:49;;;;;;;1.35;1.10;;;;;;;17.87;100.00;98855.84;15275961;19;20386;-61
2023/07/18 08:03:15;;;;;;;3.08;1.05;;;;;;;18.05;100.00;98846.34;15274320;19;20019;-61
2023/07/18 08:08:39;;;;;;;2.55;1.00;;;;;;;18.20;100.00;98831.75;15274545;19;20022;-62
2023/07/18 08:14:07;;;;;;;2.35;1.20;;;;;;;18.35;100.00;98832.47;15269449;19;20021;-61
2023/07/18 08:19:33;;;;;;;2.63;1.00;;;;;;;18.50;100.00;98831.50;15270863;19;20025;-63
2023/07/18 08:24:58;;;;;;;1.33;0.70;;;;;;;18.66;100.00;98822.13;15271671;19;20021;-63
2023/07/18 08:30:26;;;;;;;1.73;0.82;;;;;;;18.82;100.00;98818.19;15270591;19;20014;-63
2023/07/18 08:35:51;;;;;;;16.35;1.13;;;;;;;18.89;100.00;98814.44;15270424;19;20018;-62
2023/07/18 08:41:17;;;;;;;1.20;0.85;;;;;;;19.03;100.00;98815.34;15280009;19;20006;-62
2023/07/18 08:46:53;;;;;;;1.77;0.90;;;;;;;19.29;100.00;98797.31;15279473;19;20033;-62
2023/07/18 08:52:18;;;;;;;0.85;0.80;;;;;;;19.47;100.00;98795.84;15288007;19;20360;-60
2023/07/18 08:57:43;;;;;;;1.85;0.60;;;;;;;19.67;100.00;98785.75;15286607;19;20018;-63
2023/07/18 09:03:12;;;;;;;1.15;0.70;;;;;;;19.90;90.36;98786.38;15284645;19;20039;-61
2023/07/18 09:08:36;;;;;;;1.48;0.70;;;;;;;20.12;94.77;98779.59;15285013;19;20371;-61
2023/07/18 09:14:00;;;;;;;0.70;0.70;;;;;;;20.29;87.80;98768.19;15282018;19;20010;-57
2023/07/18 09:19:28;;;;;;;1.15;0.70;;;;;;;20.31;85.62;98769.63;15282660;19;20431;-61
2023/07/18 09:24:53;;;;;;;0.80;0.80;;;;;;;20.37;87.73;98759.72;15282041;19;20010;-61
2023/07/18 09:30:18;;;;;;;1.60;0.82;;;;;;;20.53;87.74;98754.81;15285987;19;20018;-58
2023/07/18 09:35:45;;;;;;;1.15;0.80;;;;;;;20.80;71.22;98746.50;15280551;19;20082;-63
2023/07/18 09:41:11;;;;;;;1.27;0.70;;;;;;;20.93;69.36;98744.50;15283588;19;20020;-62
2023/07/18 09:46:39;;;;;;;2.63;0.80;;;;;;;21.19;66.39;98739.91;15278758;19;20007;-64
2023/07/18 09:52:12;;;;;;;0.85;0.70;;;;;;;21.32;62.87;98732.63;15277444;19;20343;-61
2023/07/18 09:57:42;;;;;;;1.15;0.80;;;;;;;21.44;61.07;98719.88;15282217;19;20014;-60
2023/07/18 10:03:08;;;;;;;1.23;0.70;;;;;;;21.54;62.75;98703.75;15278775;19;20416;-61
2023/07/18 10:08:36;;;;;;;1.63;0.90;;;;;;;21.84;58.42;98703.03;15276508;19;20030;-58
2023/07/18 10:14:21;;;;;;;1.23;0.70;;;;;;;22.04;57.63;98685.53;15280771;19;20086;-60
2023/07/18 10:19:49;;;;;;;1.30;0.73;;;;;;;22.10;54.98;98683.78;15282438;19;20020;-59
2023/07/18 10:25:20;;;;;;;0.90;0.70;;;;;;;22.18;56.32;98677.97;15275220;19;20014;-61
2023/07/18 10:30:46;;;;;;;2.75;0.70;;;;;;;22.40;51.97;98667.31;15282487;19;20007;-61
2023/07/18 10:36:10;;;;;;;2.72;0.68;;;;;;;22.51;53.73;98667.63;15278134;19;20426;-61
2023/07/18 10:41:38;;;;;;;1.55;0.82;;;;;;;22.67;53.23;98650.47;15279778;19;20018;-57
2023/07/18 10:47:10;;;;;;;0.85;0.50;;;;;;;22.68;53.19;98646.66;15274908;19;20019;-58
2023/07/18 10:52:35;;;;;;;1.05;0.57;;;;;;;22.78;52.93;98637.84;15278959;19;20534;-63
2023/07/18 10:58:02;;;;;;;3.33;0.68;;;;;;;23.10;51.78;98632.03;15276493;19;20510;-59
2023/07/18 11:03:34;;;;;;;2.47;0.50;;;;;;;23.33;50.66;98619.41;15277673;19;20014;-60
2023/07/18 11:09:00;;;;;;;1.35;0.63;;;;;;;23.52;51.44;98631.09;15278002;19;20046;-60
2023/07/18 11:14:39;;;;;;;3.92;0.70;;;;;;;23.47;50.47;98630.97;15277004;19;20035;-63
2023/07/18 11:20:06;;;;;;;0.75;0.43;;;;;;;23.62;49.15;98634.06;15277910;19;20360;-62
2023/07/18 11:25:31;;;;;;;1.58;0.70;;;;;;;23.70;47.20;98630.94;15273281;19;20023;-60
2023/07/18 11:30:59;;;;;;;1.58;0.50;;;;;;;23.87;49.96;98624.69;15274092;19;20014;-62
2023/07/18 11:36:31;;;;;;;1.85;0.45;;;;;;;24.11;45.62;98610.88;15273161;19;20050;-62
2023/07/18 11:42:08;;;;;;;2.72;0.60;;;;;;;24.44;45.92;98590.03;15272095;19;20684;-58
2023/07/18 11:47:45;;;;;;;2.05;0.50;;;;;;;24.66;45.27;98592.03;15271885;19;20670;-64
2023/07/18 11:53:11;;;;;;;3.25;0.60;;;;;;;24.92;44.99;98594.16;15274113;19;20010;-63
2023/07/18 11:58:35;;;;;;;1.15;0.60;;;;;;;24.76;45.69;98583.97;15274643;19;20030;-64
2023/07/18 12:04:02;;;;;;;0.50;0.40;;;;;;;24.97;44.02;98584.31;15271970;19;20014;-60
2023/07/18 12:09:27;;;;;;;1.50;0.50;;;;;;;25.20;43.75;98589.63;15275971;19;20477;-62
2023/07/18 12:14:52;;;;;;;1.88;0.60;;;;;;;25.21;42.75;98572.00;15273670;19;20014;-61
2023/07/18 12:20:20;;;;;;;1.27;0.63;;;;;;;25.33;43.24;98579.34;15289836;19;20024;-62
2023/07/18 12:25:45;;;;;;;1.08;0.60;;;;;;;24.98;43.39;98566.69;15284052;19;20556;-62
2023/07/18 12:31:11;;;;;;;2.15;0.50;;;;;;;25.08;43.99;98591.66;15288759;19;20078;-59
2023/07/18 12:36:41;;;;;;;3.63;0.63;;;;;;;25.11;44.04;98560.00;15282588;19;20050;-62
2023/07/18 12:42:06;;;;;;;1.95;0.70;;;;;;;25.27;43.99;98552.75;15285097;19;20025;-62
2023/07/18 12:47:37;;;;;;;0.55;0.50;;;;;;;25.36;42.97;98563.13;15282065;19;20046;-62
2023/07/18 12:53:06;;;;;;;0.95;0.60;;;;;;;25.42;43.28;98561.28;15285457;19;20018;-60
2023/07/18 12:58:30;;;;;;;0.95;0.52;;;;;;;25.62;43.31;98557.13;15286527;19;20015;-61
2023/07/18 13:03:55;;;;;;;2.67;0.70;;;;;;;25.70;41.84;98551.13;15281100;19;20018;-61
2023/07/18 13:09:22;;;;;;;2.72;0.70;;;;;;;25.92;42.51;98520.75;15280125;19;20018;-58
2023/07/18 13:14:47;;;;;;;3.53;0.70;;;;;;;25.57;42.12;98496.38;15283166;19;20015;-63
2023/07/18 13:20:12;;;;;;;0.47;0.47;;;;;;;25.65;42.96;98480.19;15284728;19;20016;-62
2023/07/18 13:25:39;;;;;;;3.72;0.80;;;;;;;26.14;41.15;98482.09;15279779;19;20026;-61
2023/07/18 13:31:04;;;;;;;2.42;0.70;;;;;;;26.49;42.53;98490.13;15285133;19;20014;-61
2023/07/18 13:36:22;;;;;;;2.47;0.60;;;;;;;26.50;41.50;98469.69;15274680;19;20013;-61
2023/07/18 13:41:50;;;;;;;1.10;0.70;;;;;;;26.74;40.64;98475.63;15282959;19;20031;-61
2023/07/18 13:47:21;;;;;;;1.50;0.60;;;;;;;27.11;40.39;98479.50;15273720;19;20021;-61
2023/07/18 13:52:48;;;;;;;2.42;0.70;;;;;;;27.31;38.98;98462.13;15281025;19;20091;-62
2023/07/18 13:58:15;;;;;;;2.33;0.60;;;;;;;27.99;40.19;98439.94;15278752;19;20011;-60
2023/07/18 14:03:41;;;;;;;2.00;0.52;;;;;;;28.60;37.71;98437.44;15276417;19;20033;-62
2023/07/18 14:09:07;;;;;;;0.75;0.70;;;;;;;28.30;38.93;98434.41;15274042;19;20688;-61
2023/07/18 14:14:34;;;;;;;1.70;0.63;;;;;;;28.19;37.42;98421.69;15279721;19;20014;-63
2023/07/18 14:19:59;;;;;;;3.83;0.70;;;;;;;28.03;38.09;98415.28;15274257;19;20014;-62
2023/07/18 14:25:25;;;;;;;2.35;0.60;;;;;;;28.06;37.46;98411.97;15273651;19;20014;-63
2023/07/18 14:30:52;;;;;;;5.82;0.70;;;;;;;28.11;37.35;98391.78;15276473;19;20010;-63
2023/07/18 14:36:18;;;;;;;2.25;0.63;;;;;;;28.80;38.09;98367.28;15275860;19;20093;-65
2023/07/18 14:41:44;;;;;;;1.05;0.68;;;;;;;29.22;36.43;98382.63;15273754;19;20013;-63
2023/07/18 14:47:18;;;;;;;5.72;0.80;;;;;;;29.78;36.02;98372.31;15273556;19;20082;-64
2023/07/18 14:52:43;;;;;;;1.27;0.63;;;;;;;29.86;35.87;98382.00;15278796;19;20021;-64
2023/07/18 14:58:08;;;;;;;2.08;0.70;;;;;;;29.88;35.53;98382.50;15277614;19;20315;-64
2023/07/18 15:03:37;;;;;;;2.42;0.70;;;;;;;29.34;34.46;98370.41;15276576;19;20530;-64
2023/07/18 15:09:02;;;;;;;1.85;0.50;;;;;;;29.86;36.24;98361.69;15275893;19;20007;-64
2023/07/18 15:14:28;;;;;;;2.70;0.70;;;;;;;29.66;34.66;98358.78;15271581;19;20010;-64
2023/07/18 15:19:55;;;;;;;1.65;0.50;;;;;;;29.34;35.08;98362.91;15274227;19;20031;-66
2023/07/18 15:25:21;;;;;;;3.00;0.80;;;;;;;29.21;35.21;98355.16;15273829;19;20035;-59
2023/07/18 15:30:45;;;;;;;1.38;0.70;;;;;;;28.98;35.12;98351.13;15274686;19;20071;-58
2023/07/18 15:36:13;;;;;;;3.08;0.68;;;;;;;29.09;34.58;98341.66;15272337;19;20025;-61
2023/07/18 15:41:39;;;;;;;0.90;0.68;;;;;;;28.87;35.69;98348.38;15272823;19;20094;-57
2023/07/18 15:47:05;;;;;;;2.17;0.73;;;;;;;28.32;35.16;98336.34;15266480;19;20038;-57
2023/07/18 15:52:33;;;;;;;1.70;0.77;;;;;;;27.97;35.76;98342.47;15277829;19;20022;-56
2023/07/18 15:57:58;;;;;;;4.68;0.68;;;;;;;28.12;35.45;98332.50;15286763;19;20055;-54
2023/07/18 16:03:22;;;;;;;2.50;0.65;;;;;;;27.81;36.12;98326.97;15283803;19;20465;-57
2023/07/18 16:08:49;;;;;;;3.90;0.70;;;;;;;27.95;35.71;98314.22;15280986;19;20086;-62
2023/07/18 16:14:15;;;;;;;1.20;0.70;;;;;;;28.22;35.68;98310.34;14774172;19;10001230;-59
2023/07/18 16:19:41;;;;;;;4.65;0.75;;;;;;;28.02;35.38;98294.53;15280535;19;20374;-56
2023/07/18 16:25:09;;;;;;;2.05;0.75;;;;;;;28.32;36.08;98287.31;15281451;19;20014;-55
2023/07/18 16:30:34;;;;;;;1.70;0.80;;;;;;;27.98;35.38;98288.75;15279128;19;20403;-56
2023/07/18 16:35:58;;;;;;;0.77;0.60;;;;;;;28.10;35.90;98290.41;15279922;19;20363;-56
2023/07/18 16:41:26;;;;;;;1.15;0.52;;;;;;;27.91;36.66;98288.22;15286010;19;20347;-55
2023/07/18 16:46:51;;;;;;;0.90;0.70;;;;;;;28.27;36.14;98282.63;15279464;19;21834;-56
2023/07/18 16:52:17;;;;;;;1.88;0.60;;;;;;;28.24;36.10;98271.25;15282307;19;20612;-59
2023/07/18 16:57:44;;;;;;;2.13;0.75;;;;;;;28.36;35.67;98265.41;15286314;19;20074;-58
2023/07/18 17:03:10;;;;;;;1.00;0.60;;;;;;;28.55;36.13;98246.22;15281808;19;20021;-54
2023/07/18 17:08:35;;;;;;;0.90;0.70;;;;;;;28.10;36.28;98246.94;15280466;19;20018;-59
2023/07/18 17:14:03;;;;;;;1.60;0.80;;;;;;;28.12;36.06;98232.81;15280901;19;20010;-61
2023/07/18 17:19:27;;;;;;;2.25;0.90;;;;;;;27.82;37.02;98218.72;15283045;19;20042;-60
2023/07/18 17:25:06;;;;;;;2.22;0.80;;;;;;;28.14;36.62;98214.78;15278414;19;20014;-60
2023/07/18 17:30:33;;;;;;;4.72;0.88;;;;;;;27.84;36.54;98207.38;15276552;19;20014;-61
2023/07/18 17:35:59;;;;;;;3.55;0.70;;;;;;;28.02;36.99;98196.81;15279198;19;20024;-61
2023/07/18 17:41:23;;;;;;;2.15;0.70;;;;;;;28.20;36.24;98196.22;15284383;19;20066;-60
2023/07/18 17:46:52;;;;;;;2.20;0.80;;;;;;;28.36;36.79;98179.53;15275432;19;20006;-60
2023/07/18 17:52:16;;;;;;;3.08;0.70;;;;;;;28.08;36.59;98179.06;15285046;19;20070;-57
2023/07/18 17:57:41;;;;;;;0.65;0.63;;;;;;;27.86;36.87;98187.72;15279440;19;20035;-59
2023/07/18 18:03:08;;;;;;;2.92;0.70;;;;;;;27.41;37.64;98190.25;15280315;19;20094;-51
2023/07/18 18:08:34;;;;;;;4.05;0.75;;;;;;;26.96;37.78;98193.56;15279339;19;20488;-53
2023/07/18 18:13:59;;;;;;;1.42;0.93;;;;;;;26.69;38.27;98185.47;15277393;19;20018;-55
2023/07/18 18:19:27;;;;;;;2.50;0.70;;;;;;;26.53;38.79;98196.47;15278116;19;20373;-58
2023/07/18 18:24:52;;;;;;;3.80;0.80;;;;;;;26.36;38.55;98191.19;15279349;19;20023;-54
2023/07/18 18:30:17;;;;;;;2.35;0.80;;;;;;;26.24;38.95;98190.56;15269874;19;20015;-53
2023/07/18 18:35:44;;;;;;;1.38;0.70;;;;;;;26.06;39.16;98187.13;15277562;19;20025;-56
2023/07/18 18:41:09;;;;;;;1.13;0.70;;;;;;;25.84;40.05;98206.63;15273834;19;20083;-56
2023/07/18 18:46:33;;;;;;;2.25;0.77;;;;;;;25.60;40.08;98208.94;15275223;19;20042;-54
2023/07/18 18:52:01;;;;;;;3.13;0.63;;;;;;;25.23;40.93;98216.91;15279004;19;20015;-52
2023/07/18 18:57:25;;;;;;;2.95;0.80;;;;;;;24.85;41.40;98216.03;15279575;19;20082;-55
2023/07/18 19:02:50;;;;;;;1.05;0.60;;;;;;;24.44;42.21;98232.91;15274748;19;20014;-56
2023/07/18 19:08:18;;;;;;;2.38;0.70;;;;;;;24.14;41.86;98222.31;15274346;19;20057;-58
2023/07/18 19:13:43;;;;;;;1.55;0.60;;;;;;;23.79;42.45;98220.72;15271528;19;20024;-60
2023/07/18 19:19:07;;;;;;;2.55;0.68;;;;;;;23.55;43.30;98216.22;15274784;19;20070;-59
2023/07/18 19:24:35;;;;;;;7.57;0.77;;;;;;;23.24;43.72;98225.88;15265358;19;21063;-59
2023/07/18 19:29:59;;;;;;;2.50;0.80;;;;;;;23.13;43.89;98224.00;15251704;19;20545;-61
2023/07/18 19:35:24;;;;;;;1.98;0.60;;;;;;;22.86;45.38;98227.41;15272322;19;20345;-61
2023/07/18 19:40:51;;;;;;;16.20;1.00;;;;;;;22.64;45.82;98233.56;15275508;19;20006;-59
2023/07/18 19:46:16;;;;;;;4.15;0.60;;;;;;;22.44;46.21;98226.59;15272279;19;20407;-60
2023/07/18 19:51:41;;;;;;;4.72;0.60;;;;;;;22.19;46.55;98226.03;15270896;19;20010;-59
2023/07/18 19:57:09;;;;;;;2.20;0.80;;;;;;;22.04;46.92;98221.91;15260585;19;20475;-58
2023/07/18 20:02:33;;;;;;;5.20;0.80;;;;;;;21.91;47.52;98230.38;15260376;19;20362;-59
2023/07/18 20:07:58;;;;;;;3.08;0.77;;;;;;;21.74;48.25;98233.84;15267796;19;20031;-58
2023/07/18 20:13:25;;;;;;;3.97;0.65;;;;;;;21.62;48.51;98236.59;15269294;19;20487;-57
2023/07/18 20:18:51;;;;;;;3.47;0.52;;;;;;;21.46;48.98;98238.09;15270520;19;20363;-59
2023/07/18 20:24:19;;;;;;;3.33;0.75;;;;;;;21.30;49.36;98244.28;15270450;19;20031;-57
2023/07/18 20:29:48;;;;;;;3.35;0.80;;;;;;;21.14;50.10;98235.66;15270180;19;20022;-57
2023/07/18 20:35:14;;;;;;;3.10;0.68;;;;;;;21.01;49.93;98244.06;15264342;19;20019;-58
2023/07/18 20:40:39;;;;;;;1.63;0.60;;;;;;;20.91;50.08;98242.75;15286821;19;20038;-58
2023/07/18 20:46:13;;;;;;;2.58;0.75;;;;;;;20.84;52.10;98254.84;15281813;19;20372;-60
2023/07/18 20:51:42;;;;;;;3.22;0.90;;;;;;;20.58;57.09;98251.41;15282088;19;20002;-59
2023/07/18 20:57:07;;;;;;;3.88;0.90;;;;;;;20.24;58.61;98243.59;15280766;19;20042;-58
2023/07/18 21:02:35;;;;;;;2.53;0.80;;;;;;;20.10;59.53;98237.47;15284430;19;20468;-57
2023/07/18 21:08:00;;;;;;;4.45;0.85;;;;;;;20.04;60.24;98243.81;15280051;19;20022;-61
2023/07/18 21:13:25;;;;;;;6.60;0.90;;;;;;;19.87;62.76;98240.84;15282278;19;20368;-56
2023/07/18 21:18:52;;;;;;;2.58;0.80;;;;;;;19.77;64.16;98237.75;15283962;19;20015;-58
2023/07/18 21:24:18;;;;;;;2.42;0.70;;;;;;;19.63;65.23;98232.44;15280736;19;20035;-58
2023/07/18 21:29:42;;;;;;;1.85;0.57;;;;;;;19.54;63.81;98229.13;15277509;19;20015;-58
2023/07/18 21:35:11;;;;;;;1.40;0.65;;;;;;;19.33;69.59;98230.41;15283194;19;20011;-58
2023/07/18 21:40:37;;;;;;;2.90;0.90;;;;;;;19.11;71.50;98221.72;15277915;19;20038;-57
2023/07/18 21:46:08;;;;;;;1.83;0.90;;;;;;;19.00;73.21;98215.09;15279508;19;20027;-59
2023/07/18 21:51:36;;;;;;;2.28;0.80;;;;;;;18.88;71.92;98217.66;15275544;19;20003;-59
2023/07/18 21:57:00;;;;;;;5.20;0.90;;;;;;;18.85;73.25;98220.00;15277143;19;20025;-59
2023/07/18 22:02:34;;;;;;;3.83;0.70;;;;;;;18.67;75.50;98213.38;15277010;19;20015;-58
2023/07/18 22:08:01;;;;;;;1.00;0.65;;;;;;;18.57;73.69;98205.69;15280824;19;20020;-58
2023/07/18 22:13:28;;;;;;;2.20;0.60;;;;;;;18.44;78.12;98206.59;15273943;19;20006;-58
2023/07/18 22:18:52;;;;;;;1.00;0.70;;;;;;;18.37;79.06;98205.78;15280245;19;20013;-59
2023/07/18 22:24:20;;;;;;;3.30;0.88;;;;;;;18.24;84.09;98198.50;15278402;19;20482;-58
2023/07/18 22:29:44;;;;;;;2.75;0.93;;;;;;;18.12;86.50;98195.63;15276025;19;20337;-59
2023/07/18 22:35:10;;;;;;;1.10;0.77;;;;;;;18.01;86.84;98191.66;15279346;19;20007;-58
2023/07/18 22:40:38;;;;;;;2.85;0.70;;;;;;;17.90;88.78;98196.91;15277323;19;20006;-58
2023/07/18 22:46:03;;;;;;;2.75;0.70;;;;;;;17.77;92.18;98195.91;15271892;19;20022;-58
2023/07/18 22:51:30;;;;;;;2.35;0.73;;;;;;;17.66;92.95;98204.75;15275220;19;20020;-57
2023/07/18 22:56:58;;;;;;;1.67;0.70;;;;;;;17.56;98.08;98195.13;15273071;19;20034;-57
2023/07/18 23:02:24;;;;;;;1.20;0.70;;;;;;;17.47;94.51;98190.91;15275568;19;20017;-58
2023/07/18 23:07:49;;;;;;;2.80;0.63;;;;;;;17.41;96.96;98186.34;15277704;19;20044;-57
2023/07/18 23:13:16;;;;;;;2.83;0.80;;;;;;;17.35;95.77;98187.16;15277145;19;20023;-58
2023/07/18 23:18:41;;;;;;;2.08;0.77;;;;;;;17.29;96.40;98188.84;15274233;19;20014;-57
2023/07/18 23:24:05;;;;;;;1.38;0.60;;;;;;;17.23;98.57;98187.81;15273598;19;20026;-57
2023/07/18 23:29:33;;;;;;;0.95;0.70;;;;;;;17.19;100.00;98172.09;15274543;19;20006;-57
2023/07/18 23:34:57;;;;;;;2.97;0.70;;;;;;;17.14;97.25;98177.34;15273729;19;20385;-58
2023/07/18 23:40:22;;;;;;;1.95;0.68;;;;;;;17.11;97.35;98164.97;15274243;19;20014;-60
2023/07/18 23:45:49;;;;;;;1.42;0.68;;;;;;;17.07;98.35;98166.47;15273807;19;20041;-57
2023/07/18 23:51:14;;;;;;;1.33;0.70;;;;;;;17.01;99.03;98159.13;15267072;19;20022;-60
2023/07/18 23:56:38;;;;;;;1.45;0.80;;;;;;;16.94;98.31;98153.69;15272253;19;20017;-58
